Terminal Aerodrome Forecast
Issued by NWS

Home | Current Version | Previous Version | Text Only | Print | Product List | Glossary On
Versions: 1 2 3 4 5 6 7 8 9 10 11 12 13 14 15 16 17 18 19 20 21 22 23 24 25 26 27 28 29 30 31 32 33 34 35 36 37 38 39 40 41 42
000
FTAK31 PANC 201724
TAFASN
TAF
PASN 201724Z 2018/2118 08015KT P6SM -SHSN SCT030 OVC040
      TEMPO 2018/2020 10015G25KT 6SM -SN BR SCT015 BKN025 OVC035
     FM202000 10022G32KT 4SM -SN BR BKN015 OVC025
     FM210000 10030G45KT 2SM -SN BLSN BKN008 OVC015
     FM210700 10035G50KT 1/4SM SN BLSN OVC005
     FM211700 13025G35KT 4SM -SN BR BKN007 OVC015=

USA.gov is the U.S. government's official web portal to all federal, state and local government web resources and services.